Atlantic, Pennsylvania
Current Conditions -  °F | °C
As of 1:29 PM on Monday 26 Jan 2015 (Local Time) from KGKJ Reporting Station
Light Snow Light Snow  
Wind Chill: -10°   Ceiling: 3200
Heat Index: -6°   Visibility: 2mi
Dew Point: -9°   Wind: 7mph
Humidity: 78%   Direction: 20°NNE
Pressure: 29.73"   Gusts: NA
Location:  41.5°N, 80.33°W
Report Text: KGKJ 261829Z AUTO 02006KT 2SM -SN SCT014 BKN032 OVC046 M06/M09 A2973 RMK AO2 P0000 T10561089 TSNO
Loading
Personal Weather Stations






























Interactive Weather Map New forecast layout! Learn more

10-Day Weather Forecast

Advertisements
Track Severe Weather on mobile